Saturday, June 25, 2016
14:07 UTC
  |  Log In   |  Register Free
Airport Search:

Big Bear City Airport
(KL35)

Big Bear City Airport Diagram
No Airport Diagram Available

FAA data valid effective May 26 2016 - Jul 21 2016 (unless otherwise noted).

 
 
 
 
 
 
 
 
 
 
 
 
 
 
Current Aviation Weather for KL35

Weather Summary


The most recent METAR observation for L35 was updated at: 04:47 UTC
METAR for KL35 is not available. Closest METAR is for KSBD
KL35  (most recent observation was updatred at 25:13 UTC)
251355Z AUTO 00000KT 10SM CLR 08/M05 A3023 RMK AO2

KSBD  (21.4 nm NE)   (most recent observation was updated at 25:13 UTC)
251350Z 00000KT 4SM HZ SKC 18/14 A2989

KRIV  (30.5 nm NE)   (most recent observation was updated at 25:13 UTC)
251358Z AUTO 29001KT 10SM CLR 17/16 A2988 RMK AO2 SLP107 T01740156

TAF for KL35 is not available.
KRIV  (30.5 nm NE)   (most recent observation was updatred at 25:12 UTC)
251205Z 2512/2618 VRB06KT 9999 SKC QNH2987INS BECMG 2519/2520 29009KT 9999 SKC QNH2980INS TEMPO 2521/2601 30012G18KT BECMG 2603/2604 VRB06KT 9999 SKC QNH2984INS TX38/2522Z TN15/2513Z


KPSP  (31.3 nm NW)   (most recent observation was updatred at 25:11 UTC)
251123Z 2512/2612 VRB03KT P6SM SKC FM251900 12008KT P6SM SKC FM260100 33012KT P6SM SKC FM260700 VRB05KT P6SM SKC


KNXP  (34.5 nm SW)   (most recent observation was updatred at UTC)
2509/2609 VRB06KT 9999 SKC QNH2988INS BECMG 2521/2523 12010KT 9999 SKC QNH2983INS TEMPO 2523/2605 18010G15KT T27/2514Z T41/2523Z
GlobalAir.com is loading additional information.
 Current Weather at L35
41.0 F° (5.0 C°)

North winds at 0.0 mph
Pressure:
30.22 in
Humidity:
39%
Wind:
North at 0.0 mph
Dew Point:
17.6 F° (-8.0 C°)
Visibility:
10.00 mi
L35 NOAA Radar




Find All Airport Services Find A Hotel Find A Rental Car Find A Golf Course Find A Restaurant $100 Hamburger



Airport Weather Forecast for KL35

Translated METAR for KL35 (1355 UTC)
METAR:
KL35 251355Z AUTO 00000KT 10SM CLR 08/M05 A3023 RMK AO2
Conditions at:
KL35 (Big Bear City, CA) observed 1355 UTC 25 June 2016
Temperature:
8°C (46.4°F)
Dewpoint:
-5°C (23°F) [RH = 39.4]
Pressure:
30.23 inches Hg (1023.7 mb)
Winds:
from the N (000 degrees) at 0 mph (0 knots: 0 m/s)
Visibility:
10 mile(s)
Ceiling:
at least 12,000 feet AGL
Clouds:
Clear below 12,000 feet AGL
Remarks:
site is un-manned
site is automated and HAS a precipitation sensor

Translated TAF for KRIV (March Arb, CA) (1205 UTC)
TAF text:
KRIV 251205Z 2512/2618 VRB06KT 9999 SKC QNH2987INS BECMG 2519/2520 29009KT 9999 SKC QNH2980INS
Forecast period:
Saturday Jun 25 2016 12:00 UTC - Sunday Jun 26 2016 18:00 UTC
Forecast type:
FROM: standard forecast or significant change
Winds:
from the WNW (290 degrees) at 10.4 mph (9 knots: 4.6 m/s)
Visibility:
Ceiling:
at least 12,000 feet AGL
at least 12,000 feet AGL
Clouds:
Clear Skies
Clear Skies
Weather:
no significant weather observed at this time
TAF text:
2521/2601 30012G18KT BECMG 2603/2604 VRB06KT 9999 SKC QNH2984INS TX38/2522Z TN15/2513Z
Forecast period:
Sunday Jun 26 2016 21:00 UTC - Monday Jun 27 2016 01:00 UTC
Forecast type:
FROM: standard forecast or significant change
Winds:
variable wind direction at 6.9 mph (6 knots: 3.1 m/s)
Visibility:
Ceiling:
at least 12,000 feet AGL
Clouds:
Clear Skies
Weather:
no significant weather observed at this time
FBO's on the Field
FBO Company Facility Photos Services Transportation Aviation Fuel Prices: Prices include tax
Catering Weather Repair Courtesy Rental Type 100LL JetA JetA+ MOGAS 8087
 
Big Bear Airport

This FBO has not yet been rated
FS:Epic
Last Updated: Jun-06
Login to update fuel prices
SS:
Contact Big Bear AirportMore FBO Information
 
Add another FBO Facility Photos Catering Weather Repair Courtesy Rental Type 100LL JetA JetA+ MOGAS 8087
Services Transportation Aviation Fuel Prices: Prices include tax


model-print
model-print
model-print
model-print